createdAt,value
2023-03-17T00:00:57.747Z,3.93
2023-03-17T00:06:00.365Z,0.80
2023-03-17T00:11:02.730Z,2.90
2023-03-17T00:16:07.687Z,3.33
2023-03-17T00:21:13.404Z,1.33
2023-03-17T00:26:16.386Z,7.30
2023-03-17T00:31:21.399Z,1.67
2023-03-17T00:36:26.624Z,3.53
2023-03-17T00:41:30.007Z,6.93
2023-03-17T00:46:38.778Z,4.27
2023-03-17T00:51:41.077Z,3.53
2023-03-17T00:56:44.561Z,5.63
2023-03-17T01:01:48.182Z,4.83
2023-03-17T01:06:51.449Z,4.37
2023-03-17T01:11:55.885Z,5.07
2023-03-17T01:16:58.448Z,3.87
2023-03-17T01:22:00.646Z,5.87
2023-03-17T01:27:03.247Z,4.63
2023-03-17T01:32:06.018Z,3.00
2023-03-17T01:37:08.515Z,6.23
2023-03-17T01:42:10.746Z,2.77
2023-03-17T01:47:13.007Z,5.53
2023-03-17T01:52:20.981Z,3.13
2023-03-17T01:57:38.308Z,2.00
2023-03-17T02:02:44.065Z,3.00
2023-03-17T02:07:46.642Z,5.57
2023-03-17T02:12:52.671Z,2.37
2023-03-17T02:17:54.871Z,2.83
2023-03-17T02:22:57.514Z,1.67
2023-03-17T02:28:03.086Z,2.27
2023-03-17T02:33:06.207Z,2.20
2023-03-17T02:38:08.425Z,3.03
2023-03-17T02:43:10.761Z,1.93
2023-03-17T02:48:13.353Z,1.80
2023-03-17T02:53:15.626Z,1.63
2023-03-17T02:58:17.719Z,1.80
2023-03-17T03:03:19.931Z,1.43
2023-03-17T03:08:22.336Z,1.90
2023-03-17T03:13:24.708Z,4.57
2023-03-17T03:18:27.191Z,1.40
2023-03-17T03:23:29.352Z,2.40
2023-03-17T03:28:32.101Z,1.80
2023-03-17T03:33:34.744Z,1.13
2023-03-17T03:38:37.067Z,1.57
2023-03-17T03:43:39.273Z,1.37
2023-03-17T03:48:41.604Z,1.93
2023-03-17T03:53:43.880Z,3.20
2023-03-17T03:58:46.087Z,3.50
2023-03-17T04:03:48.858Z,3.97
2023-03-17T04:08:51.170Z,3.53
2023-03-17T04:13:53.434Z,3.73
2023-03-17T04:18:55.780Z,3.17
2023-03-17T04:23:57.979Z,2.50
2023-03-17T04:29:00.376Z,2.10
2023-03-17T04:34:02.708Z,3.67
2023-03-17T04:39:05.013Z,3.83
2023-03-17T04:44:07.875Z,3.30
2023-03-17T04:49:10.136Z,4.00
2023-03-17T04:54:12.439Z,2.60
2023-03-17T04:59:14.988Z,3.00
2023-03-17T05:04:30.824Z,3.63
2023-03-17T05:09:34.273Z,1.47
2023-03-17T05:14:37.300Z,4.10
2023-03-17T05:19:39.801Z,3.43
2023-03-17T05:24:42.292Z,2.77
2023-03-17T05:29:44.601Z,1.80
2023-03-17T05:34:47.468Z,2.47
2023-03-17T05:39:49.640Z,3.23
2023-03-17T05:44:51.882Z,3.73
2023-03-17T05:49:54.271Z,1.30
2023-03-17T05:54:56.445Z,3.23
2023-03-17T05:59:58.743Z,3.57
2023-03-17T06:05:01.223Z,1.73
2023-03-17T06:10:05.435Z,3.00
2023-03-17T06:15:09.909Z,2.13
2023-03-17T06:20:13.246Z,1.43
2023-03-17T06:25:15.737Z,4.43
2023-03-17T06:30:18.130Z,2.40
2023-03-17T06:35:20.490Z,1.47
2023-03-17T06:40:22.803Z,0.60
2023-03-17T06:45:25.219Z,0.90
2023-03-17T06:50:27.584Z,1.13
2023-03-17T06:55:30.126Z,2.20
2023-03-17T07:00:33.216Z,1.50
2023-03-17T07:05:35.823Z,1.23
2023-03-17T07:10:38.090Z,2.93
2023-03-17T07:15:45.266Z,1.37
2023-03-17T07:20:48.088Z,2.27
2023-03-17T07:25:50.945Z,1.80
2023-03-17T07:30:53.248Z,3.20
2023-03-17T07:35:55.600Z,2.93
2023-03-17T07:40:58.172Z,0.80
2023-03-17T07:46:00.421Z,2.07
2023-03-17T07:51:02.779Z,1.33
2023-03-17T07:56:05.417Z,1.20
2023-03-17T08:01:08.693Z,1.17
2023-03-17T08:06:11.612Z,3.40
2023-03-17T08:11:14.351Z,1.03
2023-03-17T08:16:17.670Z,1.03
2023-03-17T08:21:20.522Z,1.20
2023-03-17T08:26:23.404Z,2.97
2023-03-17T08:31:25.666Z,1.17
2023-03-17T08:36:28.683Z,1.33
2023-03-17T08:41:31.234Z,0.60
2023-03-17T08:46:33.651Z,0.57
2023-03-17T08:51:37.594Z,0.97
2023-03-17T08:56:40.674Z,1.70
2023-03-17T09:01:45.187Z,1.30
2023-03-17T09:07:02.261Z,1.13
2023-03-17T09:12:06.834Z,1.27
2023-03-17T09:17:09.806Z,1.47
2023-03-17T09:22:16.848Z,0.70
2023-03-17T09:27:19.202Z,0.73
2023-03-17T09:32:21.921Z,2.60
2023-03-17T09:37:24.429Z,2.43
2023-03-17T09:42:41.889Z,1.27
2023-03-17T09:48:06.235Z,2.23
2023-03-17T09:53:21.214Z,1.07
2023-03-17T09:58:30.199Z,1.10
2023-03-17T10:03:34.544Z,0.80
2023-03-17T10:08:38.130Z,1.43
2023-03-17T10:14:00.280Z,0.60
2023-03-17T10:19:40.946Z,0.70
2023-03-17T10:29:48.446Z,1.47
2023-03-17T10:34:50.915Z,1.53
2023-03-17T10:39:56.356Z,0.93
2023-03-17T10:45:14.781Z,0.87
2023-03-17T10:50:23.900Z,0.73
2023-03-17T10:55:29.592Z,0.68
2023-03-17T11:00:35.556Z,2.03
2023-03-17T11:05:40.049Z,0.73
2023-03-17T11:10:42.757Z,1.77
2023-03-17T11:15:52.296Z,3.77
2023-03-17T11:21:02.429Z,2.58
2023-03-17T11:26:29.734Z,1.60
2023-03-17T11:32:02.915Z,3.13
2023-03-17T11:37:49.700Z,1.63
2023-03-17T11:43:20.416Z,2.57
2023-03-17T11:48:41.382Z,1.03
2023-03-17T11:54:02.377Z,1.00
2023-03-17T11:59:12.005Z,1.93
2023-03-17T12:09:34.849Z,1.97
2023-03-17T12:14:48.804Z,1.37
2023-03-17T12:19:59.224Z,2.70
2023-03-17T12:25:29.002Z,1.17
2023-03-17T12:30:41.330Z,1.33
2023-03-17T12:35:43.610Z,1.63
2023-03-17T12:40:58.762Z,2.10
2023-03-17T12:46:40.642Z,0.90
2023-03-17T12:51:46.164Z,1.43
2023-03-17T12:56:49.941Z,2.30
2023-03-17T13:02:24.641Z,2.73
2023-03-17T13:07:51.997Z,1.27
2023-03-17T13:12:54.465Z,1.73
2023-03-17T13:18:20.485Z,1.90
2023-03-17T13:23:35.874Z,1.33
2023-03-17T13:28:38.435Z,1.87
2023-03-17T13:33:46.768Z,1.17
2023-03-17T13:39:19.308Z,2.73
2023-03-17T13:44:39.922Z,1.37
2023-03-17T13:54:50.304Z,3.07
2023-03-17T14:00:07.816Z,2.27
2023-03-17T14:05:38.189Z,2.90
2023-03-17T14:10:40.558Z,3.50
2023-03-17T14:15:51.640Z,3.07
2023-03-17T14:20:55.913Z,3.37
2023-03-17T14:26:00.166Z,1.63
2023-03-17T14:31:07.317Z,3.90
2023-03-17T14:36:14.355Z,1.03
2023-03-17T14:41:22.897Z,0.70
2023-03-17T14:46:32.501Z,2.87
2023-03-17T14:57:00.173Z,0.97
2023-03-17T15:02:16.622Z,1.73
2023-03-17T15:07:48.391Z,1.57
2023-03-17T15:13:00.677Z,1.67
2023-03-17T15:18:14.285Z,3.87
2023-03-17T15:23:22.455Z,1.90
2023-03-17T15:28:31.842Z,1.97
2023-03-17T15:33:38.883Z,1.10
2023-03-17T15:38:41.501Z,1.10
2023-03-17T15:43:43.834Z,2.27
2023-03-17T15:48:46.929Z,2.07
2023-03-17T15:53:49.397Z,2.60
2023-03-17T15:58:52.630Z,2.50
2023-03-17T16:03:55.126Z,2.13
2023-03-17T16:08:57.569Z,5.03
2023-03-17T16:14:00.344Z,2.60
2023-03-17T16:19:04.988Z,4.10
2023-03-17T16:24:15.178Z,4.00
2023-03-17T16:29:18.697Z,3.57
2023-03-17T16:34:23.729Z,2.97
2023-03-17T16:39:26.615Z,3.57
2023-03-17T16:44:28.979Z,4.37
2023-03-17T16:49:31.327Z,4.43
2023-03-17T16:54:34.864Z,1.93
2023-03-17T16:59:37.575Z,1.77
2023-03-17T17:04:41.339Z,2.57
2023-03-17T17:09:43.655Z,2.77
2023-03-17T17:14:46.473Z,3.27
2023-03-17T17:19:49.025Z,3.10
2023-03-17T17:24:51.510Z,4.07
2023-03-17T17:29:53.940Z,3.43
2023-03-17T17:34:56.401Z,4.40
2023-03-17T17:39:59.060Z,2.90
2023-03-17T17:45:01.866Z,5.07
2023-03-17T17:50:07.230Z,3.33
2023-03-17T17:55:09.864Z,4.33
2023-03-17T18:00:17.823Z,6.50
2023-03-17T18:05:20.460Z,8.10
2023-03-17T18:10:26.031Z,5.40
2023-03-17T18:15:28.917Z,8.17
2023-03-17T18:20:34.338Z,5.47
2023-03-17T18:25:37.646Z,6.77
2023-03-17T18:30:40.487Z,5.87
2023-03-17T18:35:43.664Z,4.77
2023-03-17T18:40:46.680Z,3.00
2023-03-17T18:45:51.488Z,4.03
2023-03-17T18:50:54.154Z,3.77
2023-03-17T18:55:57.678Z,4.17
2023-03-17T19:01:03.005Z,3.40
2023-03-17T19:06:15.948Z,4.37
2023-03-17T19:11:21.605Z,6.43
2023-03-17T19:16:29.120Z,7.40
2023-03-17T19:21:31.763Z,7.97
2023-03-17T19:26:34.362Z,8.67
2023-03-17T19:31:41.945Z,7.60
2023-03-17T19:36:46.728Z,10.40
2023-03-17T19:41:52.984Z,14.03
2023-03-17T19:46:55.418Z,7.20
2023-03-17T19:51:58.372Z,7.67
2023-03-17T19:57:00.814Z,10.73
2023-03-17T20:02:03.081Z,9.57
2023-03-17T20:07:05.577Z,8.07
2023-03-17T20:12:08.288Z,8.60
2023-03-17T20:17:10.594Z,10.10
2023-03-17T20:22:12.910Z,12.83
2023-03-17T20:27:16.158Z,18.13
2023-03-17T20:32:18.592Z,10.70
2023-03-17T20:37:20.882Z,16.10
2023-03-17T20:42:23.886Z,14.80
2023-03-17T20:47:26.923Z,10.37
2023-03-17T20:52:30.295Z,22.70
2023-03-17T20:57:33.510Z,6.93
2023-03-17T21:02:35.877Z,12.40
2023-03-17T21:07:38.409Z,9.97
2023-03-17T21:12:40.863Z,6.40
2023-03-17T21:17:43.404Z,12.87
2023-03-17T21:22:46.289Z,15.00
2023-03-17T21:27:49.054Z,6.33
2023-03-17T21:32:51.372Z,6.23
2023-03-17T21:37:53.740Z,4.97
2023-03-17T21:42:56.318Z,6.60
2023-03-17T21:47:58.684Z,7.43
2023-03-17T21:53:01.027Z,6.20
2023-03-17T21:58:03.315Z,5.57
2023-03-17T22:03:06.421Z,7.97
2023-03-17T22:08:08.846Z,11.50
2023-03-17T22:13:11.559Z,8.30
2023-03-17T22:18:14.369Z,6.47
2023-03-17T22:23:16.788Z,8.47
2023-03-17T22:28:19.632Z,8.93
2023-03-17T22:33:22.008Z,9.40
2023-03-17T22:38:24.853Z,6.30
2023-03-17T22:43:27.900Z,8.47
2023-03-17T22:48:32.573Z,6.17
2023-03-17T22:53:35.705Z,6.37
2023-03-17T22:58:38.498Z,7.60
2023-03-17T23:03:41.209Z,6.77
2023-03-17T23:08:44.405Z,13.47
2023-03-17T23:13:47.611Z,6.40
2023-03-17T23:18:50.061Z,8.43
2023-03-17T23:23:52.554Z,5.30
2023-03-17T23:28:54.805Z,5.70
2023-03-17T23:33:56.969Z,8.53
2023-03-17T23:38:59.750Z,9.97
2023-03-17T23:44:02.077Z,6.20
2023-03-17T23:49:04.942Z,7.27
2023-03-17T23:54:08.014Z,4.63
2023-03-17T23:59:11.144Z,4.20
